createdAt,value
2022-10-18T00:02:58.642Z,23.50
2022-10-18T00:06:02.588Z,22.67
2022-10-18T00:09:07.130Z,24.93
2022-10-18T00:12:10.265Z,27.03
2022-10-18T00:15:13.498Z,21.03
2022-10-18T00:18:16.621Z,20.90
2022-10-18T00:21:21.468Z,22.57
2022-10-18T00:24:25.966Z,21.73
2022-10-18T00:27:30.580Z,23.57
2022-10-18T00:30:33.739Z,23.97
2022-10-18T00:33:36.808Z,23.40
2022-10-18T00:36:40.598Z,21.37
2022-10-18T00:39:45.268Z,22.13
2022-10-18T00:42:48.421Z,18.70
2022-10-18T00:45:51.534Z,20.27
2022-10-18T00:48:56.838Z,21.03
2022-10-18T00:52:02.398Z,21.87
2022-10-18T00:55:08.526Z,21.47
2022-10-18T00:58:14.294Z,19.90
2022-10-18T01:01:17.595Z,21.60
2022-10-18T01:04:23.215Z,21.03
2022-10-18T01:07:39.029Z,21.00
2022-10-18T01:10:50.987Z,26.70
2022-10-18T01:14:07.005Z,21.33
2022-10-18T01:17:15.232Z,20.30
2022-10-18T01:20:36.994Z,25.73
2022-10-18T01:24:08.984Z,20.07
2022-10-18T01:27:44.133Z,18.90
2022-10-18T01:30:55.899Z,19.50
2022-10-18T01:37:10.409Z,19.80
2022-10-18T01:40:15.598Z,19.93
2022-10-18T01:43:21.044Z,18.77
2022-10-18T01:46:26.994Z,19.37
2022-10-18T01:49:30.103Z,19.53
2022-10-18T01:52:34.208Z,19.20
2022-10-18T01:55:43.491Z,22.70
2022-10-18T01:58:55.244Z,19.87
2022-10-18T02:02:09.805Z,20.00
2022-10-18T02:05:20.620Z,21.40
2022-10-18T02:08:29.803Z,23.27
2022-10-18T02:11:35.524Z,21.63
2022-10-18T02:14:39.585Z,19.33
2022-10-18T02:17:46.427Z,20.10
2022-10-18T02:20:50.563Z,20.63
2022-10-18T02:23:54.319Z,25.00
2022-10-18T02:26:57.460Z,24.53
2022-10-18T02:30:00.637Z,25.57
2022-10-18T02:33:12.379Z,23.63
2022-10-18T02:36:21.219Z,21.87
2022-10-18T02:39:30.499Z,22.40
2022-10-18T02:42:37.836Z,22.53
2022-10-18T02:45:41.069Z,21.27
2022-10-18T02:48:45.539Z,21.03
2022-10-18T02:51:48.639Z,21.20
2022-10-18T02:54:51.772Z,24.20
2022-10-18T02:57:54.849Z,19.73
2022-10-18T03:00:58.015Z,21.17
2022-10-18T03:04:02.595Z,22.23
2022-10-18T03:07:05.739Z,19.10
2022-10-18T03:10:09.796Z,20.87
2022-10-18T03:13:13.011Z,20.70
2022-10-18T03:16:16.083Z,21.23
2022-10-18T03:19:20.525Z,20.53
2022-10-18T03:22:25.326Z,19.37
2022-10-18T03:25:28.654Z,20.80
2022-10-18T03:28:31.831Z,19.70
2022-10-18T03:31:34.994Z,22.27
2022-10-18T03:34:39.479Z,20.70
2022-10-18T03:37:45.664Z,27.60
2022-10-18T03:40:48.829Z,26.40
2022-10-18T03:43:51.915Z,28.17
2022-10-18T03:46:55.012Z,26.97
2022-10-18T03:49:59.471Z,23.93
2022-10-18T03:53:02.592Z,23.30
2022-10-18T03:56:06.001Z,22.30
2022-10-18T03:59:09.113Z,23.50
2022-10-18T04:02:12.211Z,20.63
2022-10-18T04:05:17.067Z,23.70
2022-10-18T04:08:20.557Z,22.30
2022-10-18T04:11:23.663Z,23.47
2022-10-18T04:14:26.842Z,23.13
2022-10-18T04:17:30.280Z,24.20
2022-10-18T04:20:35.104Z,25.50
2022-10-18T04:23:38.996Z,23.77
2022-10-18T04:26:42.211Z,22.03
2022-10-18T04:29:45.310Z,26.30
2022-10-18T04:32:48.422Z,25.50
2022-10-18T04:35:54.368Z,26.80
2022-10-18T04:38:57.490Z,21.50
2022-10-18T04:42:00.672Z,24.67
2022-10-18T04:45:03.791Z,25.47
2022-10-18T04:48:07.432Z,24.90
2022-10-18T04:51:11.923Z,23.33
2022-10-18T04:54:15.034Z,27.10
2022-10-18T04:57:18.142Z,25.37
2022-10-18T05:00:21.447Z,25.57
2022-10-18T05:03:24.534Z,26.40
2022-10-18T05:06:29.029Z,24.50
2022-10-18T05:09:32.153Z,24.00
2022-10-18T05:12:35.393Z,24.57
2022-10-18T05:15:38.541Z,25.37
2022-10-18T05:18:43.147Z,23.90
2022-10-18T05:21:47.646Z,25.23
2022-10-18T05:24:50.757Z,30.17
2022-10-18T05:27:53.885Z,32.43
2022-10-18T05:30:57.219Z,35.50
2022-10-18T05:34:01.631Z,31.80
2022-10-18T05:37:07.048Z,31.57
2022-10-18T05:40:11.337Z,30.43
2022-10-18T05:43:14.471Z,28.07
2022-10-18T05:46:17.571Z,28.23
2022-10-18T05:49:20.827Z,29.20
2022-10-18T05:52:25.368Z,26.37
2022-10-18T05:55:28.507Z,27.77
2022-10-18T05:58:31.655Z,33.67
2022-10-18T06:01:34.806Z,26.40
2022-10-18T06:04:37.938Z,26.80
2022-10-18T06:07:42.467Z,28.77
2022-10-18T06:10:45.611Z,28.50
2022-10-18T06:13:50.459Z,29.30
2022-10-18T06:16:53.619Z,30.20
2022-10-18T06:19:56.766Z,29.10
2022-10-18T06:23:01.239Z,29.43
2022-10-18T06:26:06.318Z,26.33
2022-10-18T06:29:09.466Z,27.73
2022-10-18T06:32:12.598Z,26.43
2022-10-18T06:35:15.777Z,27.47
2022-10-18T06:38:20.375Z,26.87
2022-10-18T06:41:23.693Z,27.30
2022-10-18T06:44:26.928Z,30.40
2022-10-18T06:47:30.050Z,27.07
2022-10-18T06:50:33.332Z,25.87
2022-10-18T06:53:48.589Z,26.50
2022-10-18T06:57:02.826Z,25.07
2022-10-18T07:00:06.575Z,27.73
2022-10-18T07:03:09.719Z,33.60
2022-10-18T07:06:14.816Z,24.90
2022-10-18T07:09:19.338Z,28.83
2022-10-18T07:12:22.399Z,29.03
2022-10-18T07:15:25.561Z,24.60
2022-10-18T07:18:28.721Z,25.23
2022-10-18T07:21:31.836Z,23.70
2022-10-18T07:24:36.311Z,26.00
2022-10-18T07:27:40.134Z,23.77
2022-10-18T07:30:43.279Z,26.40
2022-10-18T07:33:46.387Z,27.40
2022-10-18T07:36:49.524Z,24.77
2022-10-18T07:39:53.964Z,24.13
2022-10-18T07:42:57.070Z,25.43
2022-10-18T07:46:01.982Z,24.83
2022-10-18T07:49:05.513Z,26.27
2022-10-18T07:52:08.682Z,26.20
2022-10-18T07:55:13.194Z,25.83
2022-10-18T07:58:16.318Z,23.90
2022-10-18T08:01:20.900Z,26.53
2022-10-18T08:04:24.022Z,31.33
2022-10-18T08:07:27.256Z,27.03
2022-10-18T08:10:31.765Z,22.93
2022-10-18T08:13:35.030Z,24.73
2022-10-18T08:16:38.182Z,23.53
2022-10-18T08:19:52.705Z,21.57
2022-10-18T08:23:04.936Z,23.80
2022-10-18T08:26:11.399Z,21.90
2022-10-18T08:29:24.080Z,25.13
2022-10-18T08:32:30.257Z,24.42
2022-10-18T08:35:33.748Z,27.23
2022-10-18T08:38:38.523Z,23.80
2022-10-18T08:42:13.547Z,24.10
2022-10-18T08:45:30.200Z,25.27
2022-10-18T08:48:44.636Z,26.20
2022-10-18T08:51:52.005Z,24.38
2022-10-18T08:55:02.149Z,23.98
2022-10-18T08:58:17.130Z,24.55
2022-10-18T09:01:28.948Z,24.05
2022-10-18T09:04:45.655Z,23.75
2022-10-18T09:08:16.806Z,24.80
2022-10-18T09:11:31.220Z,26.30
2022-10-18T09:14:57.873Z,26.50
2022-10-18T09:18:16.844Z,25.23
2022-10-18T09:21:25.012Z,25.48
2022-10-18T09:24:34.948Z,26.17
2022-10-18T09:27:44.645Z,24.02
2022-10-18T09:30:59.704Z,26.75
2022-10-18T09:34:09.539Z,25.55
2022-10-18T09:37:15.001Z,23.67
2022-10-18T09:40:22.613Z,22.67
2022-10-18T09:43:31.117Z,22.92
2022-10-18T09:46:39.964Z,22.77
2022-10-18T09:49:46.793Z,24.23
2022-10-18T09:53:06.404Z,23.02
2022-10-18T09:56:13.898Z,24.73
2022-10-18T09:59:39.632Z,22.65
2022-10-18T10:02:44.176Z,23.83
2022-10-18T10:05:47.632Z,23.30
2022-10-18T10:08:56.372Z,24.33
2022-10-18T10:11:59.892Z,23.88
2022-10-18T10:15:14.296Z,24.90
2022-10-18T10:18:23.067Z,22.70
2022-10-18T10:21:26.427Z,24.33
2022-10-18T10:24:48.749Z,25.60
2022-10-18T10:27:52.311Z,22.33
2022-10-18T10:30:55.569Z,24.15
2022-10-18T10:34:05.774Z,22.85
2022-10-18T10:37:28.291Z,21.80
2022-10-18T10:40:32.835Z,22.85
2022-10-18T10:43:40.133Z,23.80
2022-10-18T10:46:44.645Z,24.15
2022-10-18T10:49:49.223Z,23.30
2022-10-18T10:52:53.035Z,23.83
2022-10-18T10:55:57.352Z,23.48
2022-10-18T10:59:09.677Z,22.02
2022-10-18T11:02:21.923Z,23.00
2022-10-18T11:05:29.414Z,22.85
2022-10-18T11:08:39.125Z,22.48
2022-10-18T11:11:50.656Z,22.00
2022-10-18T11:15:00.701Z,20.48
2022-10-18T11:18:14.501Z,23.50
2022-10-18T11:21:23.281Z,21.70
2022-10-18T11:24:27.180Z,20.83
2022-10-18T11:27:36.961Z,22.15
2022-10-18T11:30:53.458Z,22.70
2022-10-18T11:34:13.800Z,21.58
2022-10-18T11:37:38.405Z,20.13
2022-10-18T11:40:52.087Z,20.70
2022-10-18T11:44:02.547Z,21.08
2022-10-18T11:47:14.726Z,22.63
2022-10-18T11:50:28.533Z,21.75
2022-10-18T11:53:42.828Z,20.83
2022-10-18T11:56:52.570Z,21.13
2022-10-18T12:00:04.895Z,21.33
2022-10-18T12:03:23.759Z,20.83
2022-10-18T12:06:31.178Z,20.08
2022-10-18T12:09:38.794Z,19.88
2022-10-18T12:12:50.848Z,20.00
2022-10-18T12:15:54.995Z,19.67
2022-10-18T12:19:00.331Z,19.00
2022-10-18T12:22:13.557Z,20.35
2022-10-18T12:25:20.114Z,20.00
2022-10-18T12:28:32.037Z,19.23
2022-10-18T12:31:40.718Z,19.60
2022-10-18T12:34:47.700Z,19.75
2022-10-18T12:38:16.651Z,18.83
2022-10-18T12:41:24.080Z,20.23
2022-10-18T12:44:32.690Z,17.98
2022-10-18T12:47:36.759Z,19.27
2022-10-18T12:50:42.879Z,18.63
2022-10-18T12:53:48.129Z,20.27
2022-10-18T12:56:52.667Z,20.48
2022-10-18T12:59:55.826Z,18.80
2022-10-18T13:03:31.131Z,18.10
2022-10-18T13:07:11.505Z,19.42
2022-10-18T13:10:36.858Z,18.40
2022-10-18T13:13:51.657Z,18.77
2022-10-18T13:17:01.051Z,18.85
2022-10-18T13:20:27.692Z,18.20
2022-10-18T13:23:41.806Z,18.83
2022-10-18T13:27:04.029Z,18.35
2022-10-18T13:30:35.356Z,20.15
2022-10-18T13:33:40.025Z,20.98
2022-10-18T13:36:43.895Z,21.08
2022-10-18T13:39:47.362Z,20.55
2022-10-18T13:42:50.517Z,19.48
2022-10-18T13:45:58.036Z,19.75
2022-10-18T13:49:16.085Z,20.00
2022-10-18T13:52:27.661Z,21.35
2022-10-18T13:55:52.086Z,21.38
2022-10-18T13:59:28.257Z,21.08
2022-10-18T14:03:37.890Z,20.37
2022-10-18T14:06:46.162Z,20.67
2022-10-18T14:09:55.205Z,20.17
2022-10-18T14:13:03.848Z,22.37
2022-10-18T14:16:12.000Z,21.00
2022-10-18T14:19:21.198Z,22.10
2022-10-18T14:22:28.801Z,19.57
2022-10-18T14:25:35.746Z,20.40
2022-10-18T14:28:58.739Z,20.47
2022-10-18T14:32:02.085Z,19.50
2022-10-18T14:35:32.036Z,21.40
2022-10-18T14:38:31.259Z,23.03
2022-10-18T14:41:35.722Z,20.97
2022-10-18T14:44:38.844Z,19.50
2022-10-18T14:47:41.945Z,18.73
2022-10-18T14:50:48.267Z,20.30
2022-10-18T14:53:53.947Z,22.57
2022-10-18T14:56:57.608Z,20.03
2022-10-18T15:00:03.529Z,21.80
2022-10-18T15:03:12.500Z,19.30
2022-10-18T15:06:19.283Z,20.83
2022-10-18T15:09:25.426Z,19.93
2022-10-18T15:12:41.099Z,21.40
2022-10-18T15:15:49.215Z,20.03
2022-10-18T15:19:07.403Z,22.20
2022-10-18T15:22:30.762Z,19.90
2022-10-18T15:25:35.997Z,21.93
2022-10-18T15:28:49.743Z,20.73
2022-10-18T15:31:53.648Z,24.13
2022-10-18T15:35:07.904Z,21.00
2022-10-18T15:38:16.970Z,21.77
2022-10-18T15:41:42.367Z,22.20
2022-10-18T15:44:50.981Z,22.40
2022-10-18T15:48:02.467Z,20.63
2022-10-18T15:51:06.891Z,21.57
2022-10-18T15:54:19.124Z,24.40
2022-10-18T15:57:26.708Z,22.73
2022-10-18T16:00:32.307Z,40.03
2022-10-18T16:03:36.639Z,36.60
2022-10-18T16:06:40.058Z,30.97
2022-10-18T16:09:43.215Z,29.30
2022-10-18T16:12:47.806Z,21.70
2022-10-18T16:15:51.100Z,25.57
2022-10-18T16:18:54.753Z,21.57
2022-10-18T16:22:02.259Z,23.57
2022-10-18T16:25:09.140Z,24.63
2022-10-18T16:28:16.926Z,20.80
2022-10-18T16:31:22.269Z,21.27
2022-10-18T16:34:26.684Z,23.97
2022-10-18T16:37:29.864Z,23.50
2022-10-18T16:40:34.616Z,25.20
2022-10-18T16:43:41.295Z,24.77
2022-10-18T16:46:45.046Z,25.57
2022-10-18T16:49:49.217Z,25.77
2022-10-18T16:52:52.379Z,25.17
2022-10-18T16:55:57.888Z,25.40
2022-10-18T16:59:02.611Z,25.10
2022-10-18T17:02:09.351Z,25.07
2022-10-18T17:05:13.372Z,26.03
2022-10-18T17:08:20.915Z,25.90
2022-10-18T17:11:26.910Z,24.77
2022-10-18T17:14:33.764Z,30.70
2022-10-18T17:17:38.116Z,29.47
2022-10-18T17:20:43.266Z,27.63
2022-10-18T17:23:46.710Z,28.93
2022-10-18T17:26:51.094Z,25.97
2022-10-18T17:29:57.755Z,24.40
2022-10-18T17:33:10.402Z,27.33
2022-10-18T17:36:14.075Z,25.53
2022-10-18T17:39:20.299Z,26.13
2022-10-18T17:42:24.272Z,25.80
2022-10-18T17:45:30.674Z,28.53
2022-10-18T17:48:34.874Z,27.70
2022-10-18T17:51:39.530Z,26.33
2022-10-18T17:54:44.761Z,26.17
2022-10-18T17:57:49.159Z,27.47
2022-10-18T18:00:54.438Z,27.63
2022-10-18T18:03:59.420Z,26.17
2022-10-18T18:07:06.001Z,28.33
2022-10-18T18:10:10.887Z,27.40
2022-10-18T18:13:18.956Z,27.73
2022-10-18T18:16:29.585Z,28.10
2022-10-18T18:19:43.177Z,26.90
2022-10-18T18:22:47.690Z,28.63
2022-10-18T18:25:58.308Z,27.57
2022-10-18T18:32:17.023Z,25.33
2022-10-18T18:35:21.511Z,25.90
2022-10-18T18:38:26.077Z,27.37
2022-10-18T18:41:31.166Z,28.87
2022-10-18T18:44:36.290Z,25.97
2022-10-18T18:47:43.339Z,27.17
2022-10-18T18:50:53.238Z,27.67
2022-10-18T18:54:00.610Z,29.23
2022-10-18T18:57:06.965Z,24.97
2022-10-18T19:00:13.861Z,28.40
2022-10-18T19:03:20.231Z,29.73
2022-10-18T19:06:27.199Z,26.80
2022-10-18T19:09:32.323Z,30.20
2022-10-18T19:12:37.054Z,28.80
2022-10-18T19:15:44.968Z,30.07
2022-10-18T19:18:56.340Z,28.20
2022-10-18T19:22:02.643Z,31.07
2022-10-18T19:25:08.402Z,26.03
2022-10-18T19:28:13.656Z,28.23
2022-10-18T19:31:18.324Z,28.77
2022-10-18T19:34:25.220Z,27.23
2022-10-18T19:37:29.603Z,28.83
2022-10-18T19:40:34.196Z,28.07
2022-10-18T19:43:39.509Z,30.53
2022-10-18T19:46:44.416Z,30.23
2022-10-18T19:49:50.953Z,26.83
2022-10-18T19:52:55.174Z,28.37
2022-10-18T19:56:00.790Z,29.20
2022-10-18T19:59:05.866Z,26.50
2022-10-18T20:02:14.610Z,24.93
2022-10-18T20:05:20.783Z,25.40
2022-10-18T20:08:24.254Z,25.43
2022-10-18T20:11:30.305Z,25.67
2022-10-18T20:14:33.644Z,29.37
2022-10-18T20:17:36.877Z,26.00
2022-10-18T20:20:44.546Z,26.97
2022-10-18T20:23:50.641Z,28.60
2022-10-18T20:26:53.774Z,26.30
2022-10-18T20:29:56.969Z,28.43
2022-10-18T20:33:00.642Z,26.93
2022-10-18T20:36:07.418Z,27.37
2022-10-18T20:39:11.216Z,24.27
2022-10-18T20:42:14.379Z,25.47
2022-10-18T20:45:17.568Z,27.60
2022-10-18T20:48:21.156Z,31.07
2022-10-18T20:51:26.021Z,40.60
2022-10-18T20:54:29.088Z,32.50
2022-10-18T20:57:34.299Z,30.33
2022-10-18T21:00:39.697Z,27.53
2022-10-18T21:03:44.247Z,26.70
2022-10-18T21:06:48.750Z,29.37
2022-10-18T21:09:51.854Z,30.60
2022-10-18T21:12:54.959Z,27.50
2022-10-18T21:15:59.134Z,27.77
2022-10-18T21:19:05.549Z,25.60
2022-10-18T21:22:10.035Z,24.43
2022-10-18T21:25:13.103Z,36.13
2022-10-18T21:28:16.949Z,41.83
2022-10-18T21:31:22.409Z,38.67
2022-10-18T21:34:26.108Z,31.10
2022-10-18T21:37:30.588Z,31.57
2022-10-18T21:40:36.159Z,26.93
2022-10-18T21:43:41.925Z,31.33
2022-10-18T21:46:46.709Z,25.77
2022-10-18T21:49:49.902Z,26.23
2022-10-18T21:52:54.415Z,27.93
2022-10-18T21:55:57.520Z,24.43
2022-10-18T21:59:00.720Z,27.10
2022-10-18T22:02:04.022Z,24.30
2022-10-18T22:05:09.834Z,27.97
2022-10-18T22:08:16.719Z,25.00
2022-10-18T22:11:22.975Z,24.97
2022-10-18T22:14:26.187Z,23.63
2022-10-18T22:17:29.295Z,24.70
2022-10-18T22:20:32.433Z,24.80
2022-10-18T22:23:39.459Z,26.20
2022-10-18T22:26:43.929Z,27.90
2022-10-18T22:29:47.057Z,24.87
2022-10-18T22:32:50.177Z,23.43
2022-10-18T22:35:53.304Z,25.60
2022-10-18T22:38:57.875Z,24.73
2022-10-18T22:42:01.083Z,24.97
2022-10-18T22:45:04.420Z,24.50
2022-10-18T22:48:08.506Z,24.13
2022-10-18T22:51:12.519Z,23.30
2022-10-18T22:54:17.177Z,24.70
2022-10-18T22:57:20.331Z,23.73
2022-10-18T23:00:23.532Z,24.73
2022-10-18T23:03:26.690Z,25.07
2022-10-18T23:06:31.732Z,25.30
2022-10-18T23:09:36.596Z,30.77
2022-10-18T23:12:39.723Z,34.73
2022-10-18T23:15:42.831Z,26.33
2022-10-18T23:18:49.935Z,28.80
2022-10-18T23:21:53.516Z,26.77
2022-10-18T23:24:57.978Z,29.10
2022-10-18T23:28:01.250Z,25.07
2022-10-18T23:31:09.473Z,30.93
2022-10-18T23:34:12.522Z,24.47
2022-10-18T23:37:15.689Z,27.73
2022-10-18T23:40:20.360Z,26.30
2022-10-18T23:43:23.461Z,26.50
2022-10-18T23:46:26.898Z,30.40
2022-10-18T23:49:30.082Z,24.57
2022-10-18T23:52:33.207Z,35.47
2022-10-18T23:55:37.699Z,26.30
2022-10-18T23:58:41.105Z,24.57
